sensor_id;sensor_type;location;lat;lon;timestamp;P1;durP1;ratioP1;P2;durP2;ratioP2
64826;SDS011;51265;53.972;12.286;2022-08-20T00:00:39;344.83;;;93.20;;
64826;SDS011;51265;53.972;12.286;2022-08-20T00:03:13;306.55;;;90.70;;
64826;SDS011;51265;53.972;12.286;2022-08-20T00:05:44;301.70;;;90.75;;
64826;SDS011;51265;53.972;12.286;2022-08-20T00:08:12;318.58;;;91.70;;
64826;SDS011;51265;53.972;12.286;2022-08-20T00:10:39;300.92;;;88.75;;
64826;SDS011;51265;53.972;12.286;2022-08-20T00:13:09;317.13;;;90.85;;
64826;SDS011;51265;53.972;12.286;2022-08-20T00:15:38;311.58;;;91.43;;
64826;SDS011;51265;53.972;12.286;2022-08-20T00:18:05;310.73;;;90.57;;
64826;SDS011;51265;53.972;12.286;2022-08-20T00:20:33;312.75;;;91.55;;
64826;SDS011;51265;53.972;12.286;2022-08-20T00:23:01;291.77;;;90.85;;
64826;SDS011;51265;53.972;12.286;2022-08-20T00:25:28;294.40;;;89.93;;
64826;SDS011;51265;53.972;12.286;2022-08-20T00:27:55;300.73;;;89.72;;
64826;SDS011;51265;53.972;12.286;2022-08-20T00:30:21;288.58;;;89.22;;
64826;SDS011;51265;53.972;12.286;2022-08-20T00:32:50;308.95;;;90.75;;
64826;SDS011;51265;53.972;12.286;2022-08-20T00:35:30;306.70;;;89.25;;
64826;SDS011;51265;53.972;12.286;2022-08-20T00:37:57;298.83;;;89.38;;
64826;SDS011;51265;53.972;12.286;2022-08-20T00:40:25;314.50;;;88.07;;
64826;SDS011;51265;53.972;12.286;2022-08-20T00:42:56;310.88;;;89.82;;
64826;SDS011;51265;53.972;12.286;2022-08-20T00:45:25;309.10;;;88.28;;
64826;SDS011;51265;53.972;12.286;2022-08-20T00:47:54;314.70;;;88.53;;
64826;SDS011;51265;53.972;12.286;2022-08-20T00:50:21;345.33;;;92.25;;
64826;SDS011;51265;53.972;12.286;2022-08-20T00:52:54;307.60;;;86.07;;
64826;SDS011;51265;53.972;12.286;2022-08-20T00:55:21;351.33;;;91.25;;
64826;SDS011;51265;53.972;12.286;2022-08-20T00:57:50;345.35;;;91.95;;
64826;SDS011;51265;53.972;12.286;2022-08-20T01:00:23;381.67;;;93.22;;
64826;SDS011;51265;53.972;12.286;2022-08-20T01:02:54;390.65;;;94.45;;
64826;SDS011;51265;53.972;12.286;2022-08-20T01:05:21;396.17;;;94.05;;
64826;SDS011;51265;53.972;12.286;2022-08-20T01:07:48;350.13;;;90.82;;
64826;SDS011;51265;53.972;12.286;2022-08-20T01:10:22;358.48;;;89.43;;
64826;SDS011;51265;53.972;12.286;2022-08-20T01:12:52;342.83;;;88.35;;
64826;SDS011;51265;53.972;12.286;2022-08-20T01:15:22;326.27;;;88.00;;
64826;SDS011;51265;53.972;12.286;2022-08-20T01:17:52;341.52;;;88.57;;
64826;SDS011;51265;53.972;12.286;2022-08-20T01:20:26;350.85;;;91.57;;
64826;SDS011;51265;53.972;12.286;2022-08-20T01:25:53;347.73;;;91.70;;
64826;SDS011;51265;53.972;12.286;2022-08-20T01:28:34;346.33;;;92.95;;
64826;SDS011;51265;53.972;12.286;2022-08-20T01:31:05;347.70;;;89.03;;
64826;SDS011;51265;53.972;12.286;2022-08-20T01:33:33;339.13;;;92.93;;
64826;SDS011;51265;53.972;12.286;2022-08-20T01:35:59;344.88;;;93.43;;
64826;SDS011;51265;53.972;12.286;2022-08-20T01:38:26;360.75;;;94.00;;
64826;SDS011;51265;53.972;12.286;2022-08-20T01:40:59;355.10;;;96.22;;
64826;SDS011;51265;53.972;12.286;2022-08-20T01:43:35;382.80;;;96.50;;
64826;SDS011;51265;53.972;12.286;2022-08-20T01:46:02;363.60;;;96.55;;
64826;SDS011;51265;53.972;12.286;2022-08-20T01:48:29;381.77;;;97.70;;
64826;SDS011;51265;53.972;12.286;2022-08-20T01:53:34;342.52;;;94.65;;
64826;SDS011;51265;53.972;12.286;2022-08-20T01:56:07;381.40;;;97.25;;
64826;SDS011;51265;53.972;12.286;2022-08-20T01:58:40;373.35;;;97.93;;
64826;SDS011;51265;53.972;12.286;2022-08-20T02:01:19;349.92;;;94.35;;
64826;SDS011;51265;53.972;12.286;2022-08-20T02:03:48;328.17;;;91.10;;
64826;SDS011;51265;53.972;12.286;2022-08-20T02:06:15;341.77;;;91.68;;
64826;SDS011;51265;53.972;12.286;2022-08-20T02:08:41;325.20;;;92.32;;
64826;SDS011;51265;53.972;12.286;2022-08-20T02:11:08;331.48;;;95.97;;
64826;SDS011;51265;53.972;12.286;2022-08-20T02:13:35;317.85;;;92.40;;
64826;SDS011;51265;53.972;12.286;2022-08-20T02:16:01;341.15;;;94.75;;
64826;SDS011;51265;53.972;12.286;2022-08-20T02:18:27;336.67;;;95.18;;
64826;SDS011;51265;53.972;12.286;2022-08-20T02:20:52;329.52;;;94.18;;
64826;SDS011;51265;53.972;12.286;2022-08-20T02:23:18;320.45;;;94.18;;
64826;SDS011;51265;53.972;12.286;2022-08-20T02:25:45;282.17;;;89.05;;
64826;SDS011;51265;53.972;12.286;2022-08-20T02:28:13;321.52;;;92.80;;
64826;SDS011;51265;53.972;12.286;2022-08-20T02:30:43;281.30;;;90.65;;
64826;SDS011;51265;53.972;12.286;2022-08-20T02:33:12;320.73;;;91.75;;
64826;SDS011;51265;53.972;12.286;2022-08-20T02:35:40;324.80;;;92.53;;
64826;SDS011;51265;53.972;12.286;2022-08-20T02:38:07;303.27;;;91.43;;
64826;SDS011;51265;53.972;12.286;2022-08-20T02:40:35;288.20;;;90.00;;
64826;SDS011;51265;53.972;12.286;2022-08-20T02:43:02;284.95;;;87.95;;
64826;SDS011;51265;53.972;12.286;2022-08-20T02:45:29;335.50;;;92.22;;
64826;SDS011;51265;53.972;12.286;2022-08-20T02:48:09;311.45;;;90.70;;
64826;SDS011;51265;53.972;12.286;2022-08-20T02:50:41;296.20;;;88.25;;
64826;SDS011;51265;53.972;12.286;2022-08-20T02:53:08;301.05;;;88.95;;
64826;SDS011;51265;53.972;12.286;2022-08-20T02:55:34;305.50;;;87.90;;
64826;SDS011;51265;53.972;12.286;2022-08-20T02:57:59;306.10;;;88.00;;
64826;SDS011;51265;53.972;12.286;2022-08-20T03:00:26;297.70;;;86.75;;
64826;SDS011;51265;53.972;12.286;2022-08-20T03:02:55;297.42;;;84.85;;
64826;SDS011;51265;53.972;12.286;2022-08-20T03:05:21;311.95;;;88.32;;
64826;SDS011;51265;53.972;12.286;2022-08-20T03:07:48;312.38;;;88.72;;
64826;SDS011;51265;53.972;12.286;2022-08-20T03:10:22;347.73;;;91.38;;
64826;SDS011;51265;53.972;12.286;2022-08-20T03:12:49;356.58;;;92.72;;
64826;SDS011;51265;53.972;12.286;2022-08-20T03:15:17;356.63;;;92.70;;
64826;SDS011;51265;53.972;12.286;2022-08-20T03:17:43;309.60;;;87.95;;
64826;SDS011;51265;53.972;12.286;2022-08-20T03:20:09;308.25;;;87.30;;
64826;SDS011;51265;53.972;12.286;2022-08-20T03:22:36;332.27;;;89.68;;
64826;SDS011;51265;53.972;12.286;2022-08-20T03:25:03;346.02;;;90.95;;
64826;SDS011;51265;53.972;12.286;2022-08-20T03:27:30;334.98;;;89.45;;
64826;SDS011;51265;53.972;12.286;2022-08-20T03:29:56;317.48;;;87.10;;
64826;SDS011;51265;53.972;12.286;2022-08-20T03:32:21;336.23;;;88.82;;
64826;SDS011;51265;53.972;12.286;2022-08-20T03:34:47;319.17;;;89.65;;
64826;SDS011;51265;53.972;12.286;2022-08-20T03:37:13;308.67;;;86.20;;
64826;SDS011;51265;53.972;12.286;2022-08-20T03:39:39;310.05;;;85.03;;
64826;SDS011;51265;53.972;12.286;2022-08-20T03:42:05;319.83;;;85.72;;
64826;SDS011;51265;53.972;12.286;2022-08-20T03:44:31;312.83;;;88.35;;
64826;SDS011;51265;53.972;12.286;2022-08-20T03:46:57;320.40;;;86.47;;
64826;SDS011;51265;53.972;12.286;2022-08-20T03:49:23;335.45;;;88.88;;
64826;SDS011;51265;53.972;12.286;2022-08-20T03:51:49;343.60;;;88.68;;
64826;SDS011;51265;53.972;12.286;2022-08-20T03:54:16;298.35;;;84.22;;
64826;SDS011;51265;53.972;12.286;2022-08-20T03:56:42;339.33;;;87.25;;
64826;SDS011;51265;53.972;12.286;2022-08-20T03:59:08;343.98;;;84.72;;
64826;SDS011;51265;53.972;12.286;2022-08-20T04:01:34;318.08;;;86.63;;
64826;SDS011;51265;53.972;12.286;2022-08-20T04:03:59;306.00;;;84.80;;
64826;SDS011;51265;53.972;12.286;2022-08-20T04:06:25;324.08;;;84.78;;
64826;SDS011;51265;53.972;12.286;2022-08-20T04:08:54;324.65;;;85.85;;
64826;SDS011;51265;53.972;12.286;2022-08-20T04:11:20;320.92;;;83.47;;
64826;SDS011;51265;53.972;12.286;2022-08-20T04:13:46;287.70;;;81.55;;
64826;SDS011;51265;53.972;12.286;2022-08-20T04:16:12;310.63;;;83.50;;
64826;SDS011;51265;53.972;12.286;2022-08-20T04:18:37;324.63;;;83.07;;
64826;SDS011;51265;53.972;12.286;2022-08-20T04:21:03;290.65;;;79.40;;
64826;SDS011;51265;53.972;12.286;2022-08-20T04:23:32;339.17;;;83.57;;
64826;SDS011;51265;53.972;12.286;2022-08-20T04:25:58;310.60;;;81.47;;
64826;SDS011;51265;53.972;12.286;2022-08-20T04:28:24;296.02;;;80.15;;
64826;SDS011;51265;53.972;12.286;2022-08-20T04:30:56;256.50;;;74.50;;
64826;SDS011;51265;53.972;12.286;2022-08-20T04:33:24;258.40;;;75.30;;
64826;SDS011;51265;53.972;12.286;2022-08-20T04:35:52;276.25;;;74.15;;
64826;SDS011;51265;53.972;12.286;2022-08-20T04:38:24;254.20;;;71.13;;
64826;SDS011;51265;53.972;12.286;2022-08-20T04:40:50;259.52;;;69.68;;
64826;SDS011;51265;53.972;12.286;2022-08-20T04:43:40;196.13;;;64.03;;
64826;SDS011;51265;53.972;12.286;2022-08-20T04:46:07;181.82;;;62.33;;
64826;SDS011;51265;53.972;12.286;2022-08-20T04:48:36;177.50;;;60.58;;
64826;SDS011;51265;53.972;12.286;2022-08-20T04:51:06;185.88;;;59.28;;
64826;SDS011;51265;53.972;12.286;2022-08-20T04:53:32;149.02;;;54.67;;
64826;SDS011;51265;53.972;12.286;2022-08-20T04:55:59;140.48;;;51.95;;
64826;SDS011;51265;53.972;12.286;2022-08-20T04:58:28;134.27;;;52.10;;
64826;SDS011;51265;53.972;12.286;2022-08-20T05:00:57;157.45;;;51.97;;
64826;SDS011;51265;53.972;12.286;2022-08-20T05:03:25;149.63;;;51.13;;
64826;SDS011;51265;53.972;12.286;2022-08-20T05:05:51;134.90;;;50.17;;
64826;SDS011;51265;53.972;12.286;2022-08-20T05:08:18;129.93;;;50.08;;
64826;SDS011;51265;53.972;12.286;2022-08-20T05:10:47;137.40;;;49.67;;
64826;SDS011;51265;53.972;12.286;2022-08-20T05:13:14;125.97;;;47.60;;
64826;SDS011;51265;53.972;12.286;2022-08-20T05:15:40;120.28;;;47.58;;
64826;SDS011;51265;53.972;12.286;2022-08-20T05:18:06;117.55;;;46.90;;
64826;SDS011;51265;53.972;12.286;2022-08-20T05:20:34;117.72;;;45.60;;
64826;SDS011;51265;53.972;12.286;2022-08-20T05:23:05;94.18;;;41.28;;
64826;SDS011;51265;53.972;12.286;2022-08-20T05:25:33;95.43;;;40.22;;
64826;SDS011;51265;53.972;12.286;2022-08-20T05:28:02;81.50;;;37.08;;
64826;SDS011;51265;53.972;12.286;2022-08-20T05:30:32;76.65;;;36.03;;
64826;SDS011;51265;53.972;12.286;2022-08-20T05:32:58;78.07;;;35.28;;
64826;SDS011;51265;53.972;12.286;2022-08-20T05:35:25;61.65;;;32.97;;
64826;SDS011;51265;53.972;12.286;2022-08-20T05:37:52;60.22;;;33.00;;
64826;SDS011;51265;53.972;12.286;2022-08-20T05:40:19;52.28;;;29.15;;
64826;SDS011;51265;53.972;12.286;2022-08-20T05:42:47;54.88;;;28.05;;
64826;SDS011;51265;53.972;12.286;2022-08-20T05:45:14;45.45;;;27.02;;
64826;SDS011;51265;53.972;12.286;2022-08-20T05:47:41;46.25;;;26.13;;
64826;SDS011;51265;53.972;12.286;2022-08-20T05:50:09;44.05;;;25.63;;
64826;SDS011;51265;53.972;12.286;2022-08-20T05:52:41;40.97;;;23.70;;
64826;SDS011;51265;53.972;12.286;2022-08-20T05:55:08;33.83;;;23.40;;
64826;SDS011;51265;53.972;12.286;2022-08-20T05:57:35;34.25;;;22.40;;
64826;SDS011;51265;53.972;12.286;2022-08-20T06:00:03;30.92;;;21.17;;
64826;SDS011;51265;53.972;12.286;2022-08-20T06:02:38;37.10;;;22.45;;
64826;SDS011;51265;53.972;12.286;2022-08-20T06:05:23;35.05;;;21.98;;
64826;SDS011;51265;53.972;12.286;2022-08-20T06:07:49;33.97;;;21.88;;
64826;SDS011;51265;53.972;12.286;2022-08-20T06:10:15;33.55;;;21.60;;
64826;SDS011;51265;53.972;12.286;2022-08-20T06:12:41;34.60;;;22.02;;
64826;SDS011;51265;53.972;12.286;2022-08-20T06:15:10;36.58;;;22.00;;
64826;SDS011;51265;53.972;12.286;2022-08-20T06:17:37;31.90;;;21.02;;
64826;SDS011;51265;53.972;12.286;2022-08-20T06:20:04;33.13;;;21.88;;
64826;SDS011;51265;53.972;12.286;2022-08-20T06:22:32;30.25;;;20.90;;
64826;SDS011;51265;53.972;12.286;2022-08-20T06:24:58;30.25;;;20.27;;
64826;SDS011;51265;53.972;12.286;2022-08-20T06:27:25;24.80;;;18.55;;
64826;SDS011;51265;53.972;12.286;2022-08-20T06:29:51;26.17;;;19.20;;
64826;SDS011;51265;53.972;12.286;2022-08-20T06:32:18;23.60;;;16.80;;
64826;SDS011;51265;53.972;12.286;2022-08-20T06:34:46;21.58;;;15.07;;
64826;SDS011;51265;53.972;12.286;2022-08-20T06:37:13;22.35;;;15.02;;
64826;SDS011;51265;53.972;12.286;2022-08-20T06:39:40;20.92;;;14.80;;
64826;SDS011;51265;53.972;12.286;2022-08-20T06:42:07;18.48;;;13.82;;
64826;SDS011;51265;53.972;12.286;2022-08-20T06:44:32;18.05;;;13.75;;
64826;SDS011;51265;53.972;12.286;2022-08-20T06:46:59;17.80;;;14.35;;
64826;SDS011;51265;53.972;12.286;2022-08-20T06:49:25;22.83;;;14.32;;
64826;SDS011;51265;53.972;12.286;2022-08-20T06:51:51;20.15;;;14.27;;
64826;SDS011;51265;53.972;12.286;2022-08-20T06:54:18;18.70;;;13.20;;
64826;SDS011;51265;53.972;12.286;2022-08-20T06:56:43;19.67;;;14.63;;
64826;SDS011;51265;53.972;12.286;2022-08-20T06:59:09;19.30;;;14.45;;
64826;SDS011;51265;53.972;12.286;2022-08-20T07:01:35;22.85;;;14.93;;
64826;SDS011;51265;53.972;12.286;2022-08-20T07:04:01;24.98;;;15.13;;
64826;SDS011;51265;53.972;12.286;2022-08-20T07:06:27;18.73;;;13.63;;
64826;SDS011;51265;53.972;12.286;2022-08-20T07:08:53;20.67;;;14.13;;
64826;SDS011;51265;53.972;12.286;2022-08-20T07:11:20;23.63;;;14.73;;
64826;SDS011;51265;53.972;12.286;2022-08-20T07:13:46;19.88;;;15.15;;
64826;SDS011;51265;53.972;12.286;2022-08-20T07:16:14;19.42;;;15.43;;
64826;SDS011;51265;53.972;12.286;2022-08-20T07:18:40;22.25;;;15.48;;
64826;SDS011;51265;53.972;12.286;2022-08-20T07:21:06;25.13;;;16.08;;
64826;SDS011;51265;53.972;12.286;2022-08-20T07:23:32;22.13;;;16.45;;
64826;SDS011;51265;53.972;12.286;2022-08-20T07:25:58;25.73;;;16.15;;
64826;SDS011;51265;53.972;12.286;2022-08-20T07:28:25;20.42;;;15.00;;
64826;SDS011;51265;53.972;12.286;2022-08-20T07:30:57;19.20;;;14.13;;
64826;SDS011;51265;53.972;12.286;2022-08-20T07:33:42;18.65;;;14.07;;
64826;SDS011;51265;53.972;12.286;2022-08-20T07:36:08;20.95;;;14.75;;
64826;SDS011;51265;53.972;12.286;2022-08-20T07:38:35;18.83;;;14.02;;
64826;SDS011;51265;53.972;12.286;2022-08-20T07:41:02;19.77;;;14.27;;
64826;SDS011;51265;53.972;12.286;2022-08-20T07:43:31;19.40;;;13.48;;
64826;SDS011;51265;53.972;12.286;2022-08-20T07:45:58;19.20;;;13.68;;
64826;SDS011;51265;53.972;12.286;2022-08-20T07:48:27;16.10;;;13.93;;
64826;SDS011;51265;53.972;12.286;2022-08-20T07:50:55;19.13;;;14.18;;
64826;SDS011;51265;53.972;12.286;2022-08-20T07:53:22;17.42;;;13.68;;
64826;SDS011;51265;53.972;12.286;2022-08-20T07:55:48;17.00;;;13.38;;
64826;SDS011;51265;53.972;12.286;2022-08-20T07:58:14;16.83;;;13.85;;
64826;SDS011;51265;53.972;12.286;2022-08-20T08:00:44;15.80;;;13.40;;
64826;SDS011;51265;53.972;12.286;2022-08-20T08:03:10;15.98;;;12.82;;
64826;SDS011;51265;53.972;12.286;2022-08-20T08:05:38;17.33;;;13.52;;
64826;SDS011;51265;53.972;12.286;2022-08-20T08:08:06;21.70;;;14.95;;
64826;SDS011;51265;53.972;12.286;2022-08-20T08:10:36;21.00;;;16.25;;
64826;SDS011;51265;53.972;12.286;2022-08-20T08:13:04;20.48;;;14.73;;
64826;SDS011;51265;53.972;12.286;2022-08-20T08:15:34;21.15;;;16.33;;
64826;SDS011;51265;53.972;12.286;2022-08-20T08:18:07;27.02;;;17.45;;
64826;SDS011;51265;53.972;12.286;2022-08-20T08:23:08;21.50;;;17.38;;
64826;SDS011;51265;53.972;12.286;2022-08-20T08:25:39;21.48;;;16.23;;
64826;SDS011;51265;53.972;12.286;2022-08-20T08:28:11;25.27;;;16.67;;
64826;SDS011;51265;53.972;12.286;2022-08-20T08:30:38;24.20;;;17.15;;
64826;SDS011;51265;53.972;12.286;2022-08-20T08:33:21;25.98;;;18.08;;
64826;SDS011;51265;53.972;12.286;2022-08-20T08:35:54;22.85;;;16.77;;
64826;SDS011;51265;53.972;12.286;2022-08-20T08:38:21;23.40;;;16.75;;
64826;SDS011;51265;53.972;12.286;2022-08-20T08:40:51;21.23;;;16.90;;
64826;SDS011;51265;53.972;12.286;2022-08-20T08:43:21;23.53;;;17.80;;
64826;SDS011;51265;53.972;12.286;2022-08-20T08:45:53;25.92;;;17.38;;
64826;SDS011;51265;53.972;12.286;2022-08-20T08:48:29;23.00;;;16.50;;
64826;SDS011;51265;53.972;12.286;2022-08-20T08:51:00;23.98;;;16.77;;
64826;SDS011;51265;53.972;12.286;2022-08-20T08:53:33;25.55;;;16.10;;
64826;SDS011;51265;53.972;12.286;2022-08-20T08:56:08;23.05;;;15.70;;
64826;SDS011;51265;53.972;12.286;2022-08-20T08:58:34;18.77;;;14.52;;
64826;SDS011;51265;53.972;12.286;2022-08-20T09:01:02;26.52;;;15.70;;
64826;SDS011;51265;53.972;12.286;2022-08-20T09:03:35;21.88;;;15.25;;
64826;SDS011;51265;53.972;12.286;2022-08-20T09:06:02;21.23;;;15.85;;
64826;SDS011;51265;53.972;12.286;2022-08-20T09:08:30;21.73;;;15.85;;
64826;SDS011;51265;53.972;12.286;2022-08-20T09:11:02;22.20;;;15.10;;
64826;SDS011;51265;53.972;12.286;2022-08-20T09:13:30;22.63;;;15.23;;
64826;SDS011;51265;53.972;12.286;2022-08-20T09:15:56;20.92;;;14.90;;
64826;SDS011;51265;53.972;12.286;2022-08-20T09:18:22;17.73;;;12.93;;
64826;SDS011;51265;53.972;12.286;2022-08-20T09:20:48;20.83;;;15.68;;
64826;SDS011;51265;53.972;12.286;2022-08-20T09:23:14;18.40;;;14.90;;
64826;SDS011;51265;53.972;12.286;2022-08-20T09:25:40;18.52;;;13.30;;
64826;SDS011;51265;53.972;12.286;2022-08-20T09:28:06;19.55;;;13.38;;
64826;SDS011;51265;53.972;12.286;2022-08-20T09:30:32;19.48;;;13.05;;
64826;SDS011;51265;53.972;12.286;2022-08-20T09:32:58;16.60;;;12.95;;
64826;SDS011;51265;53.972;12.286;2022-08-20T09:35:26;18.83;;;13.52;;
64826;SDS011;51265;53.972;12.286;2022-08-20T09:37:53;21.40;;;12.48;;
64826;SDS011;51265;53.972;12.286;2022-08-20T09:40:19;15.52;;;12.00;;
64826;SDS011;51265;53.972;12.286;2022-08-20T09:42:45;18.20;;;12.43;;
64826;SDS011;51265;53.972;12.286;2022-08-20T09:45:11;18.08;;;12.32;;
64826;SDS011;51265;53.972;12.286;2022-08-20T09:47:38;17.73;;;12.38;;
64826;SDS011;51265;53.972;12.286;2022-08-20T09:50:05;16.70;;;11.90;;
64826;SDS011;51265;53.972;12.286;2022-08-20T09:52:36;19.73;;;13.75;;
64826;SDS011;51265;53.972;12.286;2022-08-20T09:57:47;16.30;;;12.07;;
64826;SDS011;51265;53.972;12.286;2022-08-20T10:00:14;16.38;;;11.98;;
64826;SDS011;51265;53.972;12.286;2022-08-20T10:02:42;15.80;;;10.88;;
64826;SDS011;51265;53.972;12.286;2022-08-20T10:05:08;18.52;;;10.30;;
64826;SDS011;51265;53.972;12.286;2022-08-20T10:07:34;13.32;;;9.98;;
64826;SDS011;51265;53.972;12.286;2022-08-20T10:10:03;19.67;;;10.60;;
64826;SDS011;51265;53.972;12.286;2022-08-20T10:12:30;17.73;;;12.63;;
64826;SDS011;51265;53.972;12.286;2022-08-20T10:14:56;11.82;;;9.27;;
64826;SDS011;51265;53.972;12.286;2022-08-20T10:17:22;13.48;;;9.40;;
64826;SDS011;51265;53.972;12.286;2022-08-20T10:19:48;15.90;;;11.00;;
64826;SDS011;51265;53.972;12.286;2022-08-20T10:22:15;18.33;;;10.60;;
64826;SDS011;51265;53.972;12.286;2022-08-20T10:24:41;12.95;;;9.93;;
64826;SDS011;51265;53.972;12.286;2022-08-20T10:27:07;14.15;;;9.38;;
64826;SDS011;51265;53.972;12.286;2022-08-20T10:29:33;13.93;;;10.10;;
64826;SDS011;51265;53.972;12.286;2022-08-20T10:32:20;20.20;;;10.80;;
64826;SDS011;51265;53.972;12.286;2022-08-20T10:34:45;14.68;;;10.48;;
64826;SDS011;51265;53.972;12.286;2022-08-20T10:37:15;11.52;;;8.38;;
64826;SDS011;51265;53.972;12.286;2022-08-20T10:39:42;13.43;;;10.18;;
64826;SDS011;51265;53.972;12.286;2022-08-20T10:42:09;15.57;;;9.80;;
64826;SDS011;51265;53.972;12.286;2022-08-20T10:44:35;14.45;;;8.85;;
64826;SDS011;51265;53.972;12.286;2022-08-20T10:49:53;19.25;;;9.45;;
64826;SDS011;51265;53.972;12.286;2022-08-20T10:52:20;13.98;;;9.32;;
64826;SDS011;51265;53.972;12.286;2022-08-20T10:54:46;14.45;;;8.93;;
64826;SDS011;51265;53.972;12.286;2022-08-20T10:57:14;13.02;;;8.93;;
64826;SDS011;51265;53.972;12.286;2022-08-20T10:59:43;7.60;;;6.18;;
64826;SDS011;51265;53.972;12.286;2022-08-20T11:02:10;12.38;;;5.90;;
64826;SDS011;51265;53.972;12.286;2022-08-20T11:04:36;8.50;;;6.43;;
64826;SDS011;51265;53.972;12.286;2022-08-20T11:07:12;8.55;;;5.78;;
64826;SDS011;51265;53.972;12.286;2022-08-20T11:09:41;10.90;;;6.78;;
64826;SDS011;51265;53.972;12.286;2022-08-20T11:12:07;9.65;;;6.57;;
64826;SDS011;51265;53.972;12.286;2022-08-20T11:14:33;9.80;;;5.90;;
64826;SDS011;51265;53.972;12.286;2022-08-20T11:16:59;8.90;;;6.38;;
64826;SDS011;51265;53.972;12.286;2022-08-20T11:19:26;8.23;;;5.78;;
64826;SDS011;51265;53.972;12.286;2022-08-20T11:21:53;10.38;;;6.45;;
64826;SDS011;51265;53.972;12.286;2022-08-20T11:24:18;6.50;;;4.60;;
64826;SDS011;51265;53.972;12.286;2022-08-20T11:26:45;11.35;;;5.55;;
64826;SDS011;51265;53.972;12.286;2022-08-20T11:29:12;6.80;;;5.00;;
64826;SDS011;51265;53.972;12.286;2022-08-20T11:31:38;12.88;;;5.65;;
64826;SDS011;51265;53.972;12.286;2022-08-20T11:34:04;4.25;;;3.67;;
64826;SDS011;51265;53.972;12.286;2022-08-20T11:36:30;5.82;;;4.45;;
64826;SDS011;51265;53.972;12.286;2022-08-20T11:38:57;6.05;;;3.78;;
64826;SDS011;51265;53.972;12.286;2022-08-20T11:41:23;7.43;;;4.18;;
64826;SDS011;51265;53.972;12.286;2022-08-20T11:43:48;6.30;;;3.90;;
64826;SDS011;51265;53.972;12.286;2022-08-20T11:46:14;3.95;;;3.05;;
64826;SDS011;51265;53.972;12.286;2022-08-20T11:48:40;5.63;;;3.70;;
64826;SDS011;51265;53.972;12.286;2022-08-20T11:51:06;4.03;;;3.03;;
64826;SDS011;51265;53.972;12.286;2022-08-20T11:53:32;3.67;;;1.98;;
64826;SDS011;51265;53.972;12.286;2022-08-20T11:55:58;6.72;;;1.83;;
64826;SDS011;51265;53.972;12.286;2022-08-20T11:58:24;4.38;;;2.45;;
64826;SDS011;51265;53.972;12.286;2022-08-20T12:00:50;5.68;;;2.70;;
64826;SDS011;51265;53.972;12.286;2022-08-20T12:03:15;5.57;;;3.10;;
64826;SDS011;51265;53.972;12.286;2022-08-20T12:05:42;5.68;;;2.85;;
64826;SDS011;51265;53.972;12.286;2022-08-20T12:08:10;5.72;;;2.88;;
64826;SDS011;51265;53.972;12.286;2022-08-20T12:10:38;5.78;;;2.58;;
64826;SDS011;51265;53.972;12.286;2022-08-20T12:13:05;4.97;;;2.60;;
64826;SDS011;51265;53.972;12.286;2022-08-20T12:15:32;3.97;;;2.25;;
64826;SDS011;51265;53.972;12.286;2022-08-20T12:18:05;2.85;;;2.17;;
64826;SDS011;51265;53.972;12.286;2022-08-20T12:20:32;3.42;;;1.92;;
64826;SDS011;51265;53.972;12.286;2022-08-20T12:22:59;4.70;;;1.80;;
64826;SDS011;51265;53.972;12.286;2022-08-20T12:25:25;3.83;;;1.77;;
64826;SDS011;51265;53.972;12.286;2022-08-20T12:27:50;4.18;;;1.95;;
64826;SDS011;51265;53.972;12.286;2022-08-20T12:30:18;2.38;;;1.55;;
64826;SDS011;51265;53.972;12.286;2022-08-20T12:32:45;3.30;;;1.70;;
64826;SDS011;51265;53.972;12.286;2022-08-20T12:35:13;3.92;;;2.20;;
64826;SDS011;51265;53.972;12.286;2022-08-20T12:37:40;3.85;;;1.90;;
64826;SDS011;51265;53.972;12.286;2022-08-20T12:40:07;2.40;;;1.88;;
64826;SDS011;51265;53.972;12.286;2022-08-20T12:42:36;3.25;;;2.25;;
64826;SDS011;51265;53.972;12.286;2022-08-20T12:45:02;3.75;;;2.30;;
64826;SDS011;51265;53.972;12.286;2022-08-20T12:47:30;4.95;;;2.00;;
64826;SDS011;51265;53.972;12.286;2022-08-20T12:49:59;2.92;;;1.98;;
64826;SDS011;51265;53.972;12.286;2022-08-20T12:52:26;2.58;;;2.03;;
64826;SDS011;51265;53.972;12.286;2022-08-20T12:54:54;3.33;;;1.70;;
64826;SDS011;51265;53.972;12.286;2022-08-20T12:57:22;2.95;;;1.80;;
64826;SDS011;51265;53.972;12.286;2022-08-20T12:59:57;5.00;;;2.03;;
64826;SDS011;51265;53.972;12.286;2022-08-20T13:02:25;2.47;;;1.58;;
64826;SDS011;51265;53.972;12.286;2022-08-20T13:04:51;5.95;;;1.85;;
64826;SDS011;51265;53.972;12.286;2022-08-20T13:07:17;2.97;;;1.90;;
64826;SDS011;51265;53.972;12.286;2022-08-20T13:09:43;3.83;;;2.00;;
64826;SDS011;51265;53.972;12.286;2022-08-20T13:12:09;4.22;;;1.80;;
64826;SDS011;51265;53.972;12.286;2022-08-20T13:14:36;3.78;;;2.10;;
64826;SDS011;51265;53.972;12.286;2022-08-20T13:17:03;3.95;;;1.92;;
64826;SDS011;51265;53.972;12.286;2022-08-20T13:19:30;4.20;;;1.90;;
64826;SDS011;51265;53.972;12.286;2022-08-20T13:21:57;5.97;;;2.13;;
64826;SDS011;51265;53.972;12.286;2022-08-20T13:24:23;2.92;;;1.70;;
64826;SDS011;51265;53.972;12.286;2022-08-20T13:26:49;5.47;;;1.60;;
64826;SDS011;51265;53.972;12.286;2022-08-20T13:29:15;2.67;;;1.75;;
64826;SDS011;51265;53.972;12.286;2022-08-20T13:31:41;4.70;;;1.67;;
64826;SDS011;51265;53.972;12.286;2022-08-20T13:34:08;2.35;;;1.70;;
64826;SDS011;51265;53.972;12.286;2022-08-20T13:36:34;2.95;;;1.40;;
64826;SDS011;51265;53.972;12.286;2022-08-20T13:39:00;2.78;;;1.33;;
64826;SDS011;51265;53.972;12.286;2022-08-20T13:41:28;2.88;;;1.10;;
64826;SDS011;51265;53.972;12.286;2022-08-20T13:43:54;2.33;;;1.13;;
64826;SDS011;51265;53.972;12.286;2022-08-20T13:46:20;6.35;;;1.30;;
64826;SDS011;51265;53.972;12.286;2022-08-20T13:48:45;1.67;;;0.90;;
64826;SDS011;51265;53.972;12.286;2022-08-20T13:51:11;2.17;;;1.25;;
64826;SDS011;51265;53.972;12.286;2022-08-20T13:53:37;2.75;;;1.20;;
64826;SDS011;51265;53.972;12.286;2022-08-20T13:56:03;4.57;;;1.25;;
64826;SDS011;51265;53.972;12.286;2022-08-20T13:58:29;2.63;;;0.98;;
64826;SDS011;51265;53.972;12.286;2022-08-20T14:00:55;3.53;;;1.15;;
64826;SDS011;51265;53.972;12.286;2022-08-20T14:03:20;1.90;;;0.80;;
64826;SDS011;51265;53.972;12.286;2022-08-20T14:05:46;3.92;;;1.50;;
64826;SDS011;51265;53.972;12.286;2022-08-20T14:08:17;3.03;;;1.10;;
64826;SDS011;51265;53.972;12.286;2022-08-20T14:10:45;2.53;;;1.15;;
64826;SDS011;51265;53.972;12.286;2022-08-20T14:13:18;2.45;;;1.13;;
64826;SDS011;51265;53.972;12.286;2022-08-20T14:15:45;3.50;;;1.40;;
64826;SDS011;51265;53.972;12.286;2022-08-20T14:18:11;3.03;;;1.30;;
64826;SDS011;51265;53.972;12.286;2022-08-20T14:20:38;3.05;;;1.20;;
64826;SDS011;51265;53.972;12.286;2022-08-20T14:23:05;3.85;;;1.20;;
64826;SDS011;51265;53.972;12.286;2022-08-20T14:25:31;3.05;;;1.50;;
64826;SDS011;51265;53.972;12.286;2022-08-20T14:27:57;4.18;;;1.27;;